GRZ514 Details

Departure: Sitka Rocky Gutierrez Airport (PASI)
Arrival: Juneau International Airport (PAJN) at N/A
Route: HAWRD5 TNAKY
Notes:


Current Weather Information
PASI 250453Z 20006KT 5SM BR FEW001 SCT019 BKN042 13/12 A2993 RMK AO2 RAB0354E21 SLP135 P0000 T01330122
PAJN 250453Z 07004KT 10SM FEW005 BKN075 OVC095 12/11 A2987 RMK AO2 SLP116 T01220111